createdAt,value
2018-01-11T00:01:00.102Z,41.92
2018-01-11T00:03:27.988Z,39.33
2018-01-11T00:05:55.863Z,38.20
2018-01-11T00:08:27.384Z,40.33
2018-01-11T00:10:55.308Z,39.45
2018-01-11T00:13:23.160Z,39.63
2018-01-11T00:15:51.036Z,38.70
2018-01-11T00:18:18.901Z,40.42
2018-01-11T00:20:46.768Z,39.70
2018-01-11T00:23:14.720Z,39.63
2018-01-11T00:25:42.592Z,40.47
2018-01-11T00:28:16.678Z,36.53
2018-01-11T00:30:44.648Z,39.22
2018-01-11T00:33:12.521Z,36.97
2018-01-11T00:35:40.383Z,36.85
2018-01-11T00:41:13.005Z,37.60
2018-01-11T00:43:40.877Z,36.85
2018-01-11T00:46:08.819Z,37.40
2018-01-11T00:48:36.715Z,39.40
2018-01-11T00:51:04.605Z,37.38
2018-01-11T00:53:32.457Z,37.60
2018-01-11T00:56:00.320Z,35.08
2018-01-11T00:58:28.199Z,37.20
2018-01-11T01:00:56.061Z,37.25
2018-01-11T01:03:23.916Z,37.00
2018-01-11T01:05:51.768Z,36.90
2018-01-11T01:08:19.603Z,39.45
2018-01-11T01:10:47.484Z,34.13
2018-01-11T01:13:15.383Z,35.80
2018-01-11T01:15:43.348Z,37.17
2018-01-11T01:18:11.262Z,38.63
2018-01-11T01:20:39.152Z,38.20
2018-01-11T01:23:07.033Z,36.20
2018-01-11T01:25:34.914Z,37.65
2018-01-11T01:28:02.794Z,36.80
2018-01-11T01:30:30.632Z,35.45
2018-01-11T01:32:58.501Z,35.70
2018-01-11T01:35:26.397Z,36.17
2018-01-11T01:37:54.272Z,37.20
2018-01-11T01:40:22.151Z,36.80
2018-01-11T01:42:50.040Z,36.30
2018-01-11T01:45:17.906Z,36.67
2018-01-11T01:47:45.768Z,36.90
2018-01-11T01:50:13.635Z,35.60
2018-01-11T01:52:41.512Z,35.25
2018-01-11T01:55:09.417Z,34.80
2018-01-11T01:57:37.341Z,35.93
2018-01-11T02:00:05.231Z,36.10
2018-01-11T02:02:33.148Z,36.75
2018-01-11T02:05:01.014Z,35.58
2018-01-11T02:07:28.896Z,35.45
2018-01-11T02:09:56.756Z,37.60
2018-01-11T02:12:24.671Z,35.33
2018-01-11T02:14:52.552Z,37.55
2018-01-11T02:17:20.417Z,37.15
2018-01-11T02:19:48.304Z,37.05
2018-01-11T02:22:16.165Z,36.25
2018-01-11T02:24:44.035Z,36.28
2018-01-11T02:27:11.872Z,33.05
2018-01-11T02:29:39.760Z,38.03
2018-01-11T02:32:07.628Z,34.83
2018-01-11T02:34:35.495Z,35.65
2018-01-11T02:40:06.389Z,34.22
2018-01-11T02:42:34.249Z,35.63
2018-01-11T02:47:35.824Z,37.43
2018-01-11T02:50:03.687Z,37.67
2018-01-11T02:52:32.677Z,35.22
2018-01-11T02:56:35.906Z,36.05
2018-01-11T02:59:04.556Z,35.75
2018-01-11T03:01:32.414Z,34.72
2018-01-11T03:04:00.289Z,35.42
2018-01-11T03:06:28.174Z,37.00
2018-01-11T03:08:56.054Z,37.50
2018-01-11T03:11:23.926Z,36.25
2018-01-11T03:13:51.785Z,37.40
2018-01-11T03:16:19.686Z,36.22
2018-01-11T03:18:47.533Z,39.90
2018-01-11T03:21:15.400Z,37.08
2018-01-11T03:23:43.280Z,36.22
2018-01-11T03:26:11.122Z,37.00
2018-01-11T03:28:39.011Z,37.85
2018-01-11T03:31:06.858Z,37.95
2018-01-11T03:33:34.731Z,38.50
2018-01-11T03:36:02.600Z,37.58
2018-01-11T03:38:30.459Z,39.72
2018-01-11T03:40:58.344Z,36.05
2018-01-11T03:43:26.197Z,35.33
2018-01-11T03:45:54.068Z,38.08
2018-01-11T03:48:21.929Z,38.35
2018-01-11T03:50:49.782Z,35.65
2018-01-11T03:53:17.655Z,40.35
2018-01-11T03:55:45.505Z,34.83
2018-01-11T03:58:13.413Z,35.90
2018-01-11T04:00:41.259Z,38.55
2018-01-11T04:03:09.148Z,36.05
2018-01-11T04:05:36.999Z,37.60
2018-01-11T04:08:04.857Z,37.10
2018-01-11T04:10:32.735Z,32.97
2018-01-11T04:13:00.612Z,36.72
2018-01-11T04:15:28.497Z,37.67
2018-01-11T04:17:56.348Z,35.72
2018-01-11T04:20:24.200Z,36.92
2018-01-11T04:22:52.065Z,36.65
2018-01-11T04:25:20.034Z,39.67
2018-01-11T04:27:47.898Z,35.28
2018-01-11T04:30:15.765Z,37.15
2018-01-11T04:32:43.633Z,39.40
2018-01-11T04:35:11.500Z,37.13
2018-01-11T04:37:39.369Z,37.33
2018-01-11T04:40:07.297Z,34.05
2018-01-11T04:42:35.205Z,38.00
2018-01-11T04:45:03.092Z,34.30
2018-01-11T04:50:33.610Z,34.75
2018-01-11T04:53:01.491Z,34.13
2018-01-11T04:55:29.345Z,35.78
2018-01-11T04:57:57.210Z,35.50
2018-01-11T05:00:25.076Z,37.80
2018-01-11T05:02:52.977Z,36.53
2018-01-11T05:05:20.875Z,37.72
2018-01-11T05:07:54.541Z,37.80
2018-01-11T05:10:22.432Z,37.00
2018-01-11T05:12:50.268Z,35.90
2018-01-11T05:15:18.280Z,35.08
2018-01-11T05:17:46.171Z,36.80
2018-01-11T05:20:14.010Z,34.30
2018-01-11T05:22:41.869Z,33.55
2018-01-11T05:25:09.739Z,35.47
2018-01-11T05:27:37.694Z,36.28
2018-01-11T05:30:06.200Z,37.95
2018-01-11T05:32:34.131Z,37.10
2018-01-11T05:35:02.068Z,34.83
2018-01-11T05:37:36.584Z,35.88
2018-01-11T05:40:04.505Z,35.92
2018-01-11T05:42:32.387Z,37.03
2018-01-11T05:45:00.238Z,37.67
2018-01-11T05:47:29.499Z,36.80
2018-01-11T05:49:57.691Z,36.58
2018-01-11T05:52:25.900Z,35.10
2018-01-11T05:54:53.865Z,37.05
2018-01-11T05:57:21.742Z,36.90
2018-01-11T05:59:49.604Z,39.25
2018-01-11T06:02:17.488Z,35.10
2018-01-11T06:04:45.341Z,35.47
2018-01-11T06:07:13.226Z,34.50
2018-01-11T06:09:41.088Z,38.65
2018-01-11T06:12:09.071Z,35.00
2018-01-11T06:14:37.027Z,38.30
2018-01-11T06:17:04.909Z,34.80
2018-01-11T06:19:32.768Z,38.17
2018-01-11T06:22:00.832Z,37.58
2018-01-11T06:24:28.762Z,37.92
2018-01-11T06:26:56.723Z,37.22
2018-01-11T06:29:24.638Z,38.42
2018-01-11T06:31:52.505Z,39.70
2018-01-11T06:46:18.090Z,36.05
2018-01-11T06:51:51.083Z,34.75
2018-01-11T07:00:19.637Z,38.35
2018-01-11T11:14:54.493Z,35.00
2018-01-11T15:42:18.049Z,39.63
2018-01-11T16:46:21.638Z,40.65
2018-01-11T18:08:44.784Z,31.30
2018-01-11T18:11:19.741Z,30.15
2018-01-11T18:13:47.608Z,30.20
2018-01-11T18:16:17.859Z,31.30
2018-01-11T18:18:49.791Z,30.40
2018-01-11T18:21:19.867Z,30.77
2018-01-11T18:23:56.732Z,29.30
2018-01-11T18:32:59.224Z,27.02
2018-01-11T18:35:27.645Z,27.90
2018-01-11T18:41:02.473Z,26.80
2018-01-11T18:49:31.886Z,25.27
2018-01-11T18:52:01.390Z,29.10
2018-01-11T18:54:44.805Z,28.35
2018-01-11T19:00:13.661Z,26.07
2018-01-11T19:08:33.267Z,24.90
2018-01-11T19:25:53.900Z,26.33
2018-01-11T19:31:28.609Z,26.85
2018-01-11T19:33:58.880Z,26.92
2018-01-11T19:42:07.702Z,27.17
2018-01-11T19:50:25.234Z,28.30
2018-01-11T19:52:54.944Z,29.87
2018-01-11T19:55:33.179Z,28.00
2018-01-11T20:04:08.084Z,28.95
2018-01-11T20:27:31.223Z,33.95
2018-01-11T20:36:10.601Z,36.50
2018-01-11T20:47:28.216Z,35.97
2018-01-11T20:52:45.555Z,37.13
2018-01-11T20:55:33.197Z,34.75
2018-01-11T20:58:05.857Z,37.08
2018-01-11T21:00:39.280Z,38.80
2018-01-11T21:03:10.699Z,36.83
2018-01-11T21:11:27.468Z,33.80
2018-01-11T21:16:50.057Z,33.33
2018-01-11T21:19:33.085Z,35.47
2018-01-11T21:24:56.626Z,37.00
2018-01-11T21:27:25.824Z,33.90
2018-01-11T21:32:48.688Z,34.80
2018-01-11T21:35:20.277Z,37.45
2018-01-11T21:40:31.526Z,38.65
2018-01-11T21:43:05.983Z,37.85
2018-01-11T21:45:34.377Z,40.30
2018-01-11T21:51:07.973Z,37.38
2018-01-11T21:56:33.333Z,38.00
2018-01-11T22:01:55.413Z,38.92
2018-01-11T22:04:26.879Z,40.45
2018-01-11T22:06:55.844Z,36.75
2018-01-11T22:09:24.096Z,36.55
